Terminal Aerodrome Forecast
Issued by NWS Dodge City, KS

Home | Current Version | Previous Version | Graphics & Text | Print | Product List | Glossary Off
Versions: 1 2 3 4 5 6 7 8 9 10 11 12 13 14 15 16 17 18 19 20 21 22 23 24 25 26 27 28 29 30 31 32 33 34 35 36 37 38 39 40 41 42 43

040
FTUS43 KDDC 051720
TAFDDC
TAF
KDDC 051720Z 0518/0618 19015KT P6SM SKC
     FM052200 24012G22KT P6SM FEW250
     FM052300 33015G25KT P6SM FEW250
     FM060300 36022G32KT P6SM FEW250
     FM061200 35014G24KT P6SM SCT200
     FM061500 35010KT P6SM SCT200=

USA.gov is the U.S. government's official web portal to all federal, state and local government web resources and services.